sensor_id;sensor_type;location;lat;lon;timestamp;pressure;altitude;pressure_sealevel;temperature;humidity
12594;BME280;6362;50.208;9.182;2023-11-21T00:01:39;99183.47;;;7.71;100.00
12594;BME280;6362;50.208;9.182;2023-11-21T00:04:05;99186.09;;;7.67;100.00
12594;BME280;6362;50.208;9.182;2023-11-21T00:06:32;99187.78;;;7.72;100.00
12594;BME280;6362;50.208;9.182;2023-11-21T00:08:58;99192.13;;;7.70;100.00
12594;BME280;6362;50.208;9.182;2023-11-21T00:11:23;99199.88;;;7.73;100.00
12594;BME280;6362;50.208;9.182;2023-11-21T00:13:50;99203.31;;;7.72;100.00
12594;BME280;6362;50.208;9.182;2023-11-21T00:16:15;99198.13;;;7.72;100.00
12594;BME280;6362;50.208;9.182;2023-11-21T00:18:41;99187.78;;;7.73;100.00
12594;BME280;6362;50.208;9.182;2023-11-21T00:21:08;99190.34;;;7.78;100.00
12594;BME280;6362;50.208;9.182;2023-11-21T00:23:34;99187.75;;;7.76;100.00
12594;BME280;6362;50.208;9.182;2023-11-21T00:26:00;99186.94;;;7.73;100.00
12594;BME280;6362;50.208;9.182;2023-11-21T00:28:29;99188.66;;;7.72;100.00
12594;BME280;6362;50.208;9.182;2023-11-21T00:30:55;99198.16;;;7.73;100.00
12594;BME280;6362;50.208;9.182;2023-11-21T00:33:20;99192.97;;;7.72;100.00
12594;BME280;6362;50.208;9.182;2023-11-21T00:35:46;99190.38;;;7.72;100.00
12594;BME280;6362;50.208;9.182;2023-11-21T00:38:12;99200.75;;;7.68;100.00
12594;BME280;6362;50.208;9.182;2023-11-21T00:40:37;99183.53;;;7.67;100.00
12594;BME280;6362;50.208;9.182;2023-11-21T00:43:03;99195.63;;;7.64;100.00
12594;BME280;6362;50.208;9.182;2023-11-21T00:45:28;99187.84;;;7.65;100.00
12594;BME280;6362;50.208;9.182;2023-11-21T00:47:53;99185.28;;;7.62;100.00
12594;BME280;6362;50.208;9.182;2023-11-21T00:50:21;99180.97;;;7.60;100.00
12594;BME280;6362;50.208;9.182;2023-11-21T00:52:47;99185.28;;;7.62;100.00
12594;BME280;6362;50.208;9.182;2023-11-21T00:55:13;99189.59;;;7.63;100.00
12594;BME280;6362;50.208;9.182;2023-11-21T00:57:38;99192.19;;;7.63;100.00
12594;BME280;6362;50.208;9.182;2023-11-21T01:00:05;99194.75;;;7.65;100.00
12594;BME280;6362;50.208;9.182;2023-11-21T01:02:38;99198.19;;;7.65;100.00
12594;BME280;6362;50.208;9.182;2023-11-21T01:05:04;99199.03;;;7.69;100.00
12594;BME280;6362;50.208;9.182;2023-11-21T01:07:30;99199.94;;;7.63;100.00
12594;BME280;6362;50.208;9.182;2023-11-21T01:09:56;99202.50;;;7.65;100.00
12594;BME280;6362;50.208;9.182;2023-11-21T01:12:21;99205.09;;;7.68;100.00
12594;BME280;6362;50.208;9.182;2023-11-21T01:14:47;99204.25;;;7.63;100.00
12594;BME280;6362;50.208;9.182;2023-11-21T01:17:12;99205.13;;;7.62;100.00
12594;BME280;6362;50.208;9.182;2023-11-21T01:19:37;99204.25;;;7.63;100.00
12594;BME280;6362;50.208;9.182;2023-11-21T01:22:03;99209.44;;;7.63;100.00
12594;BME280;6362;50.208;9.182;2023-11-21T01:24:29;99218.91;;;7.64;100.00
12594;BME280;6362;50.208;9.182;2023-11-21T01:26:54;99208.56;;;7.64;100.00
12594;BME280;6362;50.208;9.182;2023-11-21T01:29:19;99216.28;;;7.68;100.00
12594;BME280;6362;50.208;9.182;2023-11-21T01:31:45;99217.19;;;7.64;100.00
12594;BME280;6362;50.208;9.182;2023-11-21T01:34:10;99210.28;;;7.65;100.00
12594;BME280;6362;50.208;9.182;2023-11-21T01:36:36;99217.19;;;7.64;100.00
12594;BME280;6362;50.208;9.182;2023-11-21T01:39:01;99223.22;;;7.65;100.00
12594;BME280;6362;50.208;9.182;2023-11-21T01:41:27;99221.47;;;7.65;100.00
12594;BME280;6362;50.208;9.182;2023-11-21T01:43:54;99221.50;;;7.67;100.00
12594;BME280;6362;50.208;9.182;2023-11-21T01:46:20;99211.13;;;7.67;100.00
12594;BME280;6362;50.208;9.182;2023-11-21T01:48:47;99210.28;;;7.66;100.00
12594;BME280;6362;50.208;9.182;2023-11-21T01:51:13;99208.53;;;7.68;100.00
12594;BME280;6362;50.208;9.182;2023-11-21T01:53:39;99218.84;;;7.70;100.00
12594;BME280;6362;50.208;9.182;2023-11-21T01:56:05;99208.50;;;7.70;100.00
12594;BME280;6362;50.208;9.182;2023-11-21T01:58:33;99213.66;;;7.72;100.00
12594;BME280;6362;50.208;9.182;2023-11-21T02:00:59;99208.50;;;7.70;100.00
12594;BME280;6362;50.208;9.182;2023-11-21T02:03:24;99218.84;;;7.73;100.00
12594;BME280;6362;50.208;9.182;2023-11-21T02:05:52;99214.53;;;7.74;100.00
12594;BME280;6362;50.208;9.182;2023-11-21T02:08:18;99219.72;;;7.74;100.00
12594;BME280;6362;50.208;9.182;2023-11-21T02:10:44;99228.31;;;7.74;100.00
12594;BME280;6362;50.208;9.182;2023-11-21T02:13:10;99230.03;;;7.75;100.00
12594;BME280;6362;50.208;9.182;2023-11-21T02:15:36;99234.34;;;7.76;100.00
12594;BME280;6362;50.208;9.182;2023-11-21T02:18:04;99234.34;;;7.78;100.00
12594;BME280;6362;50.208;9.182;2023-11-21T02:20:31;99242.13;;;7.75;100.00
12594;BME280;6362;50.208;9.182;2023-11-21T02:23:00;99234.34;;;7.75;100.00
12594;BME280;6362;50.208;9.182;2023-11-21T02:25:26;99236.97;;;7.73;100.00
12594;BME280;6362;50.208;9.182;2023-11-21T02:27:56;99236.97;;;7.73;100.00
12594;BME280;6362;50.208;9.182;2023-11-21T02:30:22;99236.97;;;7.73;100.00
12594;BME280;6362;50.208;9.182;2023-11-21T02:32:50;99244.72;;;7.75;100.00
12594;BME280;6362;50.208;9.182;2023-11-21T02:35:18;99234.38;;;7.73;100.00
12594;BME280;6362;50.208;9.182;2023-11-21T02:37:46;99237.81;;;7.74;100.00
12594;BME280;6362;50.208;9.182;2023-11-21T02:40:12;99240.41;;;7.74;100.00
12594;BME280;6362;50.208;9.182;2023-11-21T02:42:39;99240.38;;;7.75;100.00
12594;BME280;6362;50.208;9.182;2023-11-21T02:45:06;99238.69;;;7.73;100.00
12594;BME280;6362;50.208;9.182;2023-11-21T02:47:32;99228.34;;;7.71;100.00
12594;BME280;6362;50.208;9.182;2023-11-21T02:49:58;99229.19;;;7.72;100.00
12594;BME280;6362;50.208;9.182;2023-11-21T02:52:24;99234.38;;;7.73;100.00
12594;BME280;6362;50.208;9.182;2023-11-21T02:54:50;99236.94;;;7.75;100.00
12594;BME280;6362;50.208;9.182;2023-11-21T02:57:16;99236.09;;;7.73;100.00
12594;BME280;6362;50.208;9.182;2023-11-21T02:59:42;99223.97;;;7.76;100.00
12594;BME280;6362;50.208;9.182;2023-11-21T03:02:07;99224.78;;;7.86;100.00
12594;BME280;6362;50.208;9.182;2023-11-21T03:04:33;99223.03;;;7.89;100.00
12594;BME280;6362;50.208;9.182;2023-11-21T03:07:00;99223.06;;;7.82;100.00
12594;BME280;6362;50.208;9.182;2023-11-21T03:09:25;99223.94;;;7.84;100.00
12594;BME280;6362;50.208;9.182;2023-11-21T03:11:52;99218.72;;;7.90;100.00
12594;BME280;6362;50.208;9.182;2023-11-21T03:14:18;99229.13;;;7.84;100.00
12594;BME280;6362;50.208;9.182;2023-11-21T03:16:43;99223.94;;;7.84;100.00
12594;BME280;6362;50.208;9.182;2023-11-21T03:19:09;99226.59;;;7.78;100.00
12594;BME280;6362;50.208;9.182;2023-11-21T03:21:35;99224.00;;;7.75;100.00
12594;BME280;6362;50.208;9.182;2023-11-21T03:24:01;99228.31;;;7.74;100.00
12594;BME280;6362;50.208;9.182;2023-11-21T03:26:26;99233.50;;;7.74;100.00
12594;BME280;6362;50.208;9.182;2023-11-21T03:28:52;99233.50;;;7.74;100.00
12594;BME280;6362;50.208;9.182;2023-11-21T03:31:18;99238.69;;;7.73;100.00
12594;BME280;6362;50.208;9.182;2023-11-21T03:33:45;99235.25;;;7.71;100.00
12594;BME280;6362;50.208;9.182;2023-11-21T03:36:11;99237.84;;;7.71;100.00
12594;BME280;6362;50.208;9.182;2023-11-21T03:38:36;99244.75;;;7.70;100.00
12594;BME280;6362;50.208;9.182;2023-11-21T03:41:03;99243.88;;;7.70;100.00
12594;BME280;6362;50.208;9.182;2023-11-21T03:43:29;99250.78;;;7.69;100.00
12594;BME280;6362;50.208;9.182;2023-11-21T03:45:54;99249.09;;;7.66;100.00
12594;BME280;6362;50.208;9.182;2023-11-21T03:48:19;99248.25;;;7.63;100.00
12594;BME280;6362;50.208;9.182;2023-11-21T03:50:45;99247.38;;;7.64;100.00
12594;BME280;6362;50.208;9.182;2023-11-21T03:53:13;99253.41;;;7.63;100.00
12594;BME280;6362;50.208;9.182;2023-11-21T03:55:38;99260.34;;;7.62;100.00
12594;BME280;6362;50.208;9.182;2023-11-21T03:58:04;99250.84;;;7.63;100.00
12594;BME280;6362;50.208;9.182;2023-11-21T04:00:29;99246.53;;;7.62;100.00
12594;BME280;6362;50.208;9.182;2023-11-21T04:02:55;99256.88;;;7.60;100.00
12594;BME280;6362;50.208;9.182;2023-11-21T04:05:21;99259.47;;;7.59;100.00
12594;BME280;6362;50.208;9.182;2023-11-21T04:07:49;99261.22;;;7.57;100.00
12594;BME280;6362;50.208;9.182;2023-11-21T04:10:15;99260.38;;;7.56;100.00
12594;BME280;6362;50.208;9.182;2023-11-21T04:12:41;99262.97;;;7.56;100.00
12594;BME280;6362;50.208;9.182;2023-11-21T04:15:07;99266.38;;;7.58;100.00
12594;BME280;6362;50.208;9.182;2023-11-21T04:17:34;99266.38;;;7.58;100.00
12594;BME280;6362;50.208;9.182;2023-11-21T04:19:59;99271.56;;;7.58;100.00
12594;BME280;6362;50.208;9.182;2023-11-21T04:22:25;99275.03;;;7.56;100.00
12594;BME280;6362;50.208;9.182;2023-11-21T04:24:50;99278.47;;;7.55;100.00
12594;BME280;6362;50.208;9.182;2023-11-21T04:27:16;99279.34;;;7.55;100.00
12594;BME280;6362;50.208;9.182;2023-11-21T04:29:43;99282.81;;;7.56;100.00
12594;BME280;6362;50.208;9.182;2023-11-21T04:32:09;99281.94;;;7.55;100.00
12594;BME280;6362;50.208;9.182;2023-11-21T04:34:35;99281.94;;;7.57;100.00
12594;BME280;6362;50.208;9.182;2023-11-21T04:37:00;99283.66;;;7.56;100.00
12594;BME280;6362;50.208;9.182;2023-11-21T04:39:26;99284.50;;;7.58;100.00
12594;BME280;6362;50.208;9.182;2023-11-21T04:41:52;99284.47;;;7.60;100.00
12594;BME280;6362;50.208;9.182;2023-11-21T04:44:17;99287.06;;;7.60;100.00
12594;BME280;6362;50.208;9.182;2023-11-21T04:46:43;99287.09;;;7.58;100.00
12594;BME280;6362;50.208;9.182;2023-11-21T04:49:08;99289.66;;;7.61;100.00
12594;BME280;6362;50.208;9.182;2023-11-21T04:51:34;99287.09;;;7.61;100.00
12594;BME280;6362;50.208;9.182;2023-11-21T04:53:59;99295.69;;;7.62;100.00
12594;BME280;6362;50.208;9.182;2023-11-21T04:56:25;99289.63;;;7.64;100.00
12594;BME280;6362;50.208;9.182;2023-11-21T04:58:50;99294.81;;;7.63;100.00
12594;BME280;6362;50.208;9.182;2023-11-21T05:01:16;99307.78;;;7.61;100.00
12594;BME280;6362;50.208;9.182;2023-11-21T05:03:41;99300.88;;;7.62;100.00
12594;BME280;6362;50.208;9.182;2023-11-21T05:06:09;99313.81;;;7.62;100.00
12594;BME280;6362;50.208;9.182;2023-11-21T05:08:35;99313.81;;;7.63;100.00
12594;BME280;6362;50.208;9.182;2023-11-21T05:11:02;99323.25;;;7.66;100.00
12594;BME280;6362;50.208;9.182;2023-11-21T05:13:28;99318.09;;;7.64;100.00
12594;BME280;6362;50.208;9.182;2023-11-21T05:15:56;99314.66;;;7.64;100.00
12594;BME280;6362;50.208;9.182;2023-11-21T05:18:25;99318.09;;;7.64;100.00
12594;BME280;6362;50.208;9.182;2023-11-21T05:20:55;99325.88;;;7.64;100.00
12594;BME280;6362;50.208;9.182;2023-11-21T05:23:21;99330.16;;;7.65;100.00
12594;BME280;6362;50.208;9.182;2023-11-21T05:25:46;99326.75;;;7.63;100.00
12594;BME280;6362;50.208;9.182;2023-11-21T05:28:12;99332.78;;;7.62;100.00
12594;BME280;6362;50.208;9.182;2023-11-21T05:30:37;99333.66;;;7.63;100.00
12594;BME280;6362;50.208;9.182;2023-11-21T05:33:06;99336.19;;;7.66;100.00
12594;BME280;6362;50.208;9.182;2023-11-21T05:35:32;99336.22;;;7.64;100.00
12594;BME280;6362;50.208;9.182;2023-11-21T05:37:57;99343.09;;;7.65;100.00
12594;BME280;6362;50.208;9.182;2023-11-21T05:40:23;99345.72;;;7.64;100.00
12594;BME280;6362;50.208;9.182;2023-11-21T05:42:48;99346.56;;;7.64;100.00
12594;BME280;6362;50.208;9.182;2023-11-21T05:45:14;99349.16;;;7.64;100.00
12594;BME280;6362;50.208;9.182;2023-11-21T05:47:45;99348.28;;;7.64;100.00
12594;BME280;6362;50.208;9.182;2023-11-21T05:50:13;99352.63;;;7.62;100.00
12594;BME280;6362;50.208;9.182;2023-11-21T05:52:42;99348.34;;;7.61;100.00
12594;BME280;6362;50.208;9.182;2023-11-21T05:55:08;99350.03;;;7.60;100.00
12594;BME280;6362;50.208;9.182;2023-11-21T05:57:35;99355.19;;;7.60;100.00
12594;BME280;6362;50.208;9.182;2023-11-21T06:00:05;99353.53;;;7.56;100.00
12594;BME280;6362;50.208;9.182;2023-11-21T06:02:37;99359.56;;;7.55;100.00
12594;BME280;6362;50.208;9.182;2023-11-21T06:05:03;99362.16;;;7.52;100.00
12594;BME280;6362;50.208;9.182;2023-11-21T06:07:29;99371.66;;;7.50;100.00
12594;BME280;6362;50.208;9.182;2023-11-21T06:09:55;99371.69;;;7.46;100.00
12594;BME280;6362;50.208;9.182;2023-11-21T06:12:20;99375.97;;;7.47;100.00
12594;BME280;6362;50.208;9.182;2023-11-21T06:14:45;99381.16;;;7.42;100.00
12594;BME280;6362;50.208;9.182;2023-11-21T06:17:11;99392.41;;;7.36;100.00
12594;BME280;6362;50.208;9.182;2023-11-21T06:19:36;99398.44;;;7.32;100.00
12594;BME280;6362;50.208;9.182;2023-11-21T06:22:02;99395.88;;;7.31;100.00
12594;BME280;6362;50.208;9.182;2023-11-21T06:24:27;99398.47;;;7.29;100.00
12594;BME280;6362;50.208;9.182;2023-11-21T06:26:53;99401.91;;;7.27;100.00
12594;BME280;6362;50.208;9.182;2023-11-21T06:29:18;99405.34;;;7.26;100.00
12594;BME280;6362;50.208;9.182;2023-11-21T06:31:44;99405.38;;;7.24;100.00
12594;BME280;6362;50.208;9.182;2023-11-21T06:34:09;99421.75;;;7.23;100.00
12594;BME280;6362;50.208;9.182;2023-11-21T06:36:35;99422.63;;;7.24;100.00
12594;BME280;6362;50.208;9.182;2023-11-21T06:39:01;99425.19;;;7.21;100.00
12594;BME280;6362;50.208;9.182;2023-11-21T06:41:26;99434.66;;;7.22;100.00
12594;BME280;6362;50.208;9.182;2023-11-21T06:43:52;99437.28;;;7.19;100.00
12594;BME280;6362;50.208;9.182;2023-11-21T06:46:18;99437.25;;;7.22;100.00
12594;BME280;6362;50.208;9.182;2023-11-21T06:48:45;99443.31;;;7.19;100.00
12594;BME280;6362;50.208;9.182;2023-11-21T06:51:10;99442.44;;;7.22;100.00
12594;BME280;6362;50.208;9.182;2023-11-21T06:53:36;99444.19;;;7.23;100.00
12594;BME280;6362;50.208;9.182;2023-11-21T06:56:02;99450.19;;;7.25;100.00
12594;BME280;6362;50.208;9.182;2023-11-21T06:58:28;99459.66;;;7.27;100.00
12594;BME280;6362;50.208;9.182;2023-11-21T07:00:54;99457.09;;;7.29;100.00
12594;BME280;6362;50.208;9.182;2023-11-21T07:03:19;99451.91;;;7.30;100.00
12594;BME280;6362;50.208;9.182;2023-11-21T07:05:45;99457.94;;;7.32;100.00
12594;BME280;6362;50.208;9.182;2023-11-21T07:08:11;99467.44;;;7.33;100.00
12594;BME280;6362;50.208;9.182;2023-11-21T07:10:38;99470.00;;;7.35;100.00
12594;BME280;6362;50.208;9.182;2023-11-21T07:13:03;99470.84;;;7.37;100.00
12594;BME280;6362;50.208;9.182;2023-11-21T07:15:28;99475.16;;;7.38;100.00
12594;BME280;6362;50.208;9.182;2023-11-21T07:17:54;99482.06;;;7.37;100.00
12594;BME280;6362;50.208;9.182;2023-11-21T07:20:19;99485.50;;;7.43;100.00
12594;BME280;6362;50.208;9.182;2023-11-21T07:22:45;99490.69;;;7.47;100.00
12594;BME280;6362;50.208;9.182;2023-11-21T07:25:11;99494.16;;;7.40;100.00
12594;BME280;6362;50.208;9.182;2023-11-21T07:27:37;99494.16;;;7.40;100.00
12594;BME280;6362;50.208;9.182;2023-11-21T07:30:02;99493.28;;;7.41;100.00
12594;BME280;6362;50.208;9.182;2023-11-21T07:32:33;99502.75;;;7.44;100.00
12594;BME280;6362;50.208;9.182;2023-11-21T07:34:59;99496.72;;;7.43;100.00
12594;BME280;6362;50.208;9.182;2023-11-21T07:37:26;99507.06;;;7.46;100.00
12594;BME280;6362;50.208;9.182;2023-11-21T07:39:54;99503.63;;;7.47;100.00
12594;BME280;6362;50.208;9.182;2023-11-21T07:42:23;99508.78;;;7.50;100.00
12594;BME280;6362;50.208;9.182;2023-11-21T07:44:49;99518.28;;;7.51;100.00
12594;BME280;6362;50.208;9.182;2023-11-21T07:47:15;99517.41;;;7.55;100.00
12594;BME280;6362;50.208;9.182;2023-11-21T07:49:40;99519.13;;;7.56;100.00
12594;BME280;6362;50.208;9.182;2023-11-21T07:52:09;99515.66;;;7.54;100.00
12594;BME280;6362;50.208;9.182;2023-11-21T07:54:34;99516.53;;;7.55;100.00
12594;BME280;6362;50.208;9.182;2023-11-21T07:57:01;99521.69;;;7.55;100.00
12594;BME280;6362;50.208;9.182;2023-11-21T07:59:28;99532.03;;;7.55;100.00
12594;BME280;6362;50.208;9.182;2023-11-21T08:01:53;99534.66;;;7.56;100.00
12594;BME280;6362;50.208;9.182;2023-11-21T08:04:19;99524.28;;;7.55;100.00
12594;BME280;6362;50.208;9.182;2023-11-21T08:06:44;99526.03;;;7.62;100.00
12594;BME280;6362;50.208;9.182;2023-11-21T08:09:10;99529.47;;;7.59;100.00
12594;BME280;6362;50.208;9.182;2023-11-21T08:11:37;99524.31;;;7.61;100.00
12594;BME280;6362;50.208;9.182;2023-11-21T08:14:05;99528.59;;;7.65;100.00
12594;BME280;6362;50.208;9.182;2023-11-21T08:16:30;99532.91;;;7.72;100.00
12594;BME280;6362;50.208;9.182;2023-11-21T08:18:55;99528.56;;;7.76;100.00
12594;BME280;6362;50.208;9.182;2023-11-21T08:21:22;99531.13;;;7.82;100.00
12594;BME280;6362;50.208;9.182;2023-11-21T08:23:50;99538.03;;;7.86;100.00
12594;BME280;6362;50.208;9.182;2023-11-21T08:26:19;99539.72;;;7.93;100.00
12594;BME280;6362;50.208;9.182;2023-11-21T08:28:45;99537.09;;;7.99;100.00
12594;BME280;6362;50.208;9.182;2023-11-21T08:31:12;99536.25;;;8.03;100.00
12594;BME280;6362;50.208;9.182;2023-11-21T08:33:38;99544.84;;;8.08;100.00
12594;BME280;6362;50.208;9.182;2023-11-21T08:36:07;99543.09;;;8.13;100.00
12594;BME280;6362;50.208;9.182;2023-11-21T08:38:33;99543.13;;;8.16;100.00
12594;BME280;6362;50.208;9.182;2023-11-21T08:41:04;99547.41;;;8.17;100.00
12594;BME280;6362;50.208;9.182;2023-11-21T08:43:34;99545.69;;;8.16;100.00
12594;BME280;6362;50.208;9.182;2023-11-21T08:45:59;99547.38;;;8.24;100.00
12594;BME280;6362;50.208;9.182;2023-11-21T08:48:25;99556.88;;;8.25;100.00
12594;BME280;6362;50.208;9.182;2023-11-21T08:50:50;99556.88;;;8.28;100.00
12594;BME280;6362;50.208;9.182;2023-11-21T08:53:16;99565.53;;;8.24;100.00
12594;BME280;6362;50.208;9.182;2023-11-21T08:55:42;99570.69;;;8.27;100.00
12594;BME280;6362;50.208;9.182;2023-11-21T08:58:09;99577.59;;;8.28;100.00
12594;BME280;6362;50.208;9.182;2023-11-21T09:00:34;99581.94;;;8.24;100.00
12594;BME280;6362;50.208;9.182;2023-11-21T09:03:01;99590.53;;;8.29;100.00
12594;BME280;6362;50.208;9.182;2023-11-21T09:05:28;99592.25;;;8.30;100.00
12594;BME280;6362;50.208;9.182;2023-11-21T09:07:53;99602.63;;;8.29;100.00
12594;BME280;6362;50.208;9.182;2023-11-21T09:10:19;99604.34;;;8.34;100.00
12594;BME280;6362;50.208;9.182;2023-11-21T09:12:45;99607.81;;;8.38;100.00
12594;BME280;6362;50.208;9.182;2023-11-21T09:15:11;99610.41;;;8.44;100.00
12594;BME280;6362;50.208;9.182;2023-11-21T09:17:37;99611.22;;;8.49;100.00
12594;BME280;6362;50.208;9.182;2023-11-21T09:20:03;99609.47;;;8.53;100.00
12594;BME280;6362;50.208;9.182;2023-11-21T09:22:31;99611.16;;;8.60;100.00
12594;BME280;6362;50.208;9.182;2023-11-21T09:24:57;99616.31;;;8.67;100.00
12594;BME280;6362;50.208;9.182;2023-11-21T09:27:23;99620.59;;;8.71;100.00
12594;BME280;6362;50.208;9.182;2023-11-21T09:29:49;99620.59;;;8.71;100.00
12594;BME280;6362;50.208;9.182;2023-11-21T09:32:14;99626.69;;;8.72;100.00
12594;BME280;6362;50.208;9.182;2023-11-21T09:34:43;99630.09;;;8.76;100.00
12594;BME280;6362;50.208;9.182;2023-11-21T09:37:09;99631.00;;;8.70;100.00
12594;BME280;6362;50.208;9.182;2023-11-21T09:39:35;99639.66;;;8.66;100.00
12594;BME280;6362;50.208;9.182;2023-11-21T09:42:13;99637.09;;;8.60;100.00
12594;BME280;6362;50.208;9.182;2023-11-21T09:44:44;99632.75;;;8.60;100.00
12594;BME280;6362;50.208;9.182;2023-11-21T09:47:14;99636.63;;;9.38;100.00
12594;BME280;6362;50.208;9.182;2023-11-21T09:49:45;99637.78;;;10.80;100.00
12594;BME280;6362;50.208;9.182;2023-11-21T09:52:18;99632.38;;;12.06;95.55
12594;BME280;6362;50.208;9.182;2023-11-21T09:54:45;99631.75;;;13.19;88.06
12594;BME280;6362;50.208;9.182;2023-11-21T09:57:11;99630.88;;;14.24;78.22
12594;BME280;6362;50.208;9.182;2023-11-21T09:59:37;99630.75;;;15.19;70.26
12594;BME280;6362;50.208;9.182;2023-11-21T10:02:03;99627.50;;;15.67;66.30
12594;BME280;6362;50.208;9.182;2023-11-21T10:04:29;99630.63;;;15.23;65.18
12594;BME280;6362;50.208;9.182;2023-11-21T10:06:56;99628.47;;;14.49;66.16
12594;BME280;6362;50.208;9.182;2023-11-21T10:09:23;99632.41;;;14.00;68.09
12594;BME280;6362;50.208;9.182;2023-11-21T10:11:50;99633.34;;;13.63;71.40
12594;BME280;6362;50.208;9.182;2023-11-21T10:14:18;99634.31;;;13.24;72.26
12594;BME280;6362;50.208;9.182;2023-11-21T10:16:47;99643.00;;;12.84;74.01
12594;BME280;6362;50.208;9.182;2023-11-21T10:19:14;99647.44;;;12.35;75.55
12594;BME280;6362;50.208;9.182;2023-11-21T10:21:41;99652.19;;;12.13;78.17
12594;BME280;6362;50.208;9.182;2023-11-21T10:24:07;99647.19;;;11.50;79.55
12594;BME280;6362;50.208;9.182;2023-11-21T10:26:33;99643.97;;;11.34;82.60
12594;BME280;6362;50.208;9.182;2023-11-21T10:29:03;99646.03;;;12.19;81.65
12594;BME280;6362;50.208;9.182;2023-11-21T10:31:30;99645.50;;;12.47;79.55
12594;BME280;6362;50.208;9.182;2023-11-21T10:34:16;99642.09;;;13.62;75.32
12594;BME280;6362;50.208;9.182;2023-11-21T10:36:42;99647.19;;;14.96;68.79
12594;BME280;6362;50.208;9.182;2023-11-21T10:39:08;99650.50;;;16.10;62.81
12594;BME280;6362;50.208;9.182;2023-11-21T10:41:35;99646.22;;;17.26;55.90
12594;BME280;6362;50.208;9.182;2023-11-21T10:44:01;99649.56;;;18.16;54.66
12594;BME280;6362;50.208;9.182;2023-11-21T10:46:29;99654.72;;;19.16;51.13
12594;BME280;6362;50.208;9.182;2023-11-21T10:48:56;99648.97;;;19.81;47.76
12594;BME280;6362;50.208;9.182;2023-11-21T10:51:22;99644.56;;;20.66;44.62
12594;BME280;6362;50.208;9.182;2023-11-21T10:53:53;99648.84;;;20.85;44.35
12594;BME280;6362;50.208;9.182;2023-11-21T10:56:18;99643.44;;;20.70;44.23
12594;BME280;6362;50.208;9.182;2023-11-21T10:58:48;99642.56;;;21.03;43.22
12594;BME280;6362;50.208;9.182;2023-11-21T11:01:15;99635.72;;;21.62;42.50
12594;BME280;6362;50.208;9.182;2023-11-21T11:03:43;99640.25;;;21.13;42.94
12594;BME280;6362;50.208;9.182;2023-11-21T11:06:10;99642.16;;;20.62;44.10
12594;BME280;6362;50.208;9.182;2023-11-21T11:08:38;99641.88;;;19.28;47.79
12594;BME280;6362;50.208;9.182;2023-11-21T11:11:09;99646.53;;;18.05;48.58
12594;BME280;6362;50.208;9.182;2023-11-21T11:13:35;99654.84;;;16.84;51.17
12594;BME280;6362;50.208;9.182;2023-11-21T11:16:03;99654.91;;;16.34;52.99
12594;BME280;6362;50.208;9.182;2023-11-21T11:18:33;99646.84;;;15.89;54.25
12594;BME280;6362;50.208;9.182;2023-11-21T11:21:17;99648.97;;;15.23;57.08
12594;BME280;6362;50.208;9.182;2023-11-21T11:23:54;99655.09;;;14.94;57.40
12594;BME280;6362;50.208;9.182;2023-11-21T11:26:41;99656.75;;;14.67;59.25
12594;BME280;6362;50.208;9.182;2023-11-21T11:32:07;99646.81;;;13.46;64.43
12594;BME280;6362;50.208;9.182;2023-11-21T11:34:37;99649.00;;;13.28;68.65
12594;BME280;6362;50.208;9.182;2023-11-21T11:37:07;99656.06;;;12.82;71.95
12594;BME280;6362;50.208;9.182;2023-11-21T11:39:41;99657.34;;;12.63;74.99
12594;BME280;6362;50.208;9.182;2023-11-21T11:42:14;99658.78;;;12.34;77.58
12594;BME280;6362;50.208;9.182;2023-11-21T11:52:40;99651.25;;;11.11;84.78
12594;BME280;6362;50.208;9.182;2023-11-21T11:55:08;99650.53;;;11.00;87.47
12594;BME280;6362;50.208;9.182;2023-11-21T11:57:37;99656.69;;;10.94;88.45
12594;BME280;6362;50.208;9.182;2023-11-21T12:00:14;99660.47;;;10.72;89.88
12594;BME280;6362;50.208;9.182;2023-11-21T12:02:48;99657.97;;;10.63;91.05
12594;BME280;6362;50.208;9.182;2023-11-21T12:05:16;99668.47;;;10.55;92.25
12594;BME280;6362;50.208;9.182;2023-11-21T12:10:15;99667.81;;;10.35;93.72
12594;BME280;6362;50.208;9.182;2023-11-21T12:12:44;99672.28;;;10.16;95.57
12594;BME280;6362;50.208;9.182;2023-11-21T12:15:11;99673.19;;;10.13;97.16
12594;BME280;6362;50.208;9.182;2023-11-21T12:17:37;99674.97;;;10.10;97.42
12594;BME280;6362;50.208;9.182;2023-11-21T12:20:04;99681.16;;;9.99;98.71
12594;BME280;6362;50.208;9.182;2023-11-21T12:22:31;99678.63;;;9.90;98.68
12594;BME280;6362;50.208;9.182;2023-11-21T12:24:57;99677.81;;;9.82;100.00
12594;BME280;6362;50.208;9.182;2023-11-21T12:27:22;99686.50;;;9.76;100.00
12594;BME280;6362;50.208;9.182;2023-11-21T12:29:48;99689.97;;;9.77;100.00
12594;BME280;6362;50.208;9.182;2023-11-21T12:32:13;99699.47;;;9.79;100.00
12594;BME280;6362;50.208;9.182;2023-11-21T12:34:43;99695.16;;;9.77;100.00
12594;BME280;6362;50.208;9.182;2023-11-21T12:37:08;99708.09;;;9.82;100.00
12594;BME280;6362;50.208;9.182;2023-11-21T12:39:34;99701.16;;;9.87;100.00
12594;BME280;6362;50.208;9.182;2023-11-21T12:41:59;99704.69;;;9.78;100.00
12594;BME280;6362;50.208;9.182;2023-11-21T12:44:25;99706.34;;;9.90;100.00
12594;BME280;6362;50.208;9.182;2023-11-21T12:46:51;99708.81;;;10.02;100.00
12594;BME280;6362;50.208;9.182;2023-11-21T12:49:17;99705.31;;;10.06;98.06
12594;BME280;6362;50.208;9.182;2023-11-21T12:51:45;99703.50;;;10.14;97.35
12594;BME280;6362;50.208;9.182;2023-11-21T12:54:12;99714.75;;;10.16;96.27
12594;BME280;6362;50.208;9.182;2023-11-21T12:56:40;99702.56;;;10.21;95.05
12594;BME280;6362;50.208;9.182;2023-11-21T12:59:06;99707.78;;;10.24;92.08
12594;BME280;6362;50.208;9.182;2023-11-21T13:01:31;99711.25;;;10.22;91.63
12594;BME280;6362;50.208;9.182;2023-11-21T13:03:58;99709.50;;;10.24;93.13
12594;BME280;6362;50.208;9.182;2023-11-21T13:06:27;99711.22;;;10.25;91.43
12594;BME280;6362;50.208;9.182;2023-11-21T13:08:55;99716.41;;;10.26;91.77
12594;BME280;6362;50.208;9.182;2023-11-21T13:11:22;99722.47;;;10.27;90.58
12594;BME280;6362;50.208;9.182;2023-11-21T13:13:51;99724.19;;;10.29;90.59
12594;BME280;6362;50.208;9.182;2023-11-21T13:16:18;99731.97;;;10.29;90.65
12594;BME280;6362;50.208;9.182;2023-11-21T13:18:45;99725.94;;;10.26;90.73
12594;BME280;6362;50.208;9.182;2023-11-21T13:21:11;99725.09;;;10.22;89.12